createdAt,value
2023-07-30T00:00:55.498Z,5.00
2023-07-30T00:03:22.091Z,3.00
2023-07-30T00:05:48.668Z,6.00
2023-07-30T00:08:15.925Z,4.25
2023-07-30T00:10:43.197Z,4.00
2023-07-30T00:13:10.450Z,5.75
2023-07-30T00:15:36.889Z,6.33
2023-07-30T00:18:03.346Z,6.00
2023-07-30T00:20:29.797Z,6.67
2023-07-30T00:22:56.205Z,5.67
2023-07-30T00:25:22.629Z,5.00
2023-07-30T00:27:49.088Z,5.33
2023-07-30T00:30:15.535Z,5.33
2023-07-30T00:32:43.891Z,4.33
2023-07-30T00:35:12.643Z,4.75
2023-07-30T00:37:39.079Z,6.00
2023-07-30T00:42:50.362Z,5.33
2023-07-30T00:45:17.651Z,4.50
2023-07-30T00:47:44.151Z,5.00
2023-07-30T00:50:10.617Z,5.00
2023-07-30T00:52:37.036Z,6.00
2023-07-30T00:57:47.163Z,4.00
2023-07-30T01:00:13.565Z,5.00
2023-07-30T01:02:40.018Z,5.00
2023-07-30T01:05:06.532Z,4.33
2023-07-30T01:07:32.945Z,4.00
2023-07-30T01:12:43.221Z,4.00
2023-07-30T01:15:09.641Z,4.00
2023-07-30T01:17:36.079Z,4.33
2023-07-30T01:20:02.508Z,3.00
2023-07-30T01:22:28.950Z,4.33
2023-07-30T01:27:49.093Z,4.00
2023-07-30T01:30:16.398Z,3.50
2023-07-30T01:32:42.887Z,4.00
2023-07-30T01:35:09.337Z,3.67
2023-07-30T01:37:35.764Z,5.00
2023-07-30T01:42:47.037Z,4.00
2023-07-30T01:45:13.427Z,3.00
2023-07-30T01:47:39.922Z,4.00
2023-07-30T01:50:06.386Z,2.00
2023-07-30T01:52:32.789Z,2.67
2023-07-30T01:57:43.373Z,4.00
2023-07-30T02:00:10.710Z,3.00
2023-07-30T02:02:37.298Z,3.00
2023-07-30T02:05:03.847Z,4.67
2023-07-30T02:07:30.311Z,6.00
2023-07-30T02:12:40.859Z,4.00
2023-07-30T02:15:07.285Z,5.00
2023-07-30T02:17:33.720Z,5.67
2023-07-30T02:20:00.165Z,4.00
2023-07-30T02:22:26.633Z,5.00
2023-07-30T02:27:47.157Z,4.00
2023-07-30T02:30:13.569Z,3.67
2023-07-30T02:32:39.983Z,3.33
2023-07-30T02:35:06.434Z,3.33
2023-07-30T02:37:32.851Z,4.33
2023-07-30T02:42:43.027Z,5.00
2023-07-30T02:45:10.330Z,5.25
2023-07-30T02:47:36.779Z,7.00
2023-07-30T02:50:03.308Z,7.00
2023-07-30T02:52:30.598Z,7.25
2023-07-30T02:57:50.858Z,6.33
2023-07-30T03:00:18.110Z,5.00
2023-07-30T03:02:44.597Z,6.00
2023-07-30T03:05:11.937Z,5.00
2023-07-30T03:07:38.354Z,5.33
2023-07-30T03:12:48.810Z,6.33
2023-07-30T03:15:15.248Z,6.67
2023-07-30T03:17:41.742Z,6.00
2023-07-30T03:20:08.171Z,8.00
2023-07-30T03:22:34.566Z,8.00
2023-07-30T03:27:44.790Z,6.00
2023-07-30T03:30:12.054Z,6.50
2023-07-30T03:32:38.507Z,7.00
2023-07-30T03:35:04.973Z,7.33
2023-07-30T03:37:31.383Z,8.00
2023-07-30T03:42:41.654Z,5.33
2023-07-30T03:45:08.079Z,5.00
2023-07-30T03:47:34.539Z,6.00
2023-07-30T03:50:01.074Z,8.00
2023-07-30T03:52:27.475Z,7.00
2023-07-30T03:57:37.908Z,6.00
2023-07-30T04:00:04.351Z,6.00
2023-07-30T04:02:30.839Z,6.67
2023-07-30T04:04:57.272Z,5.67
2023-07-30T04:07:23.712Z,5.00
2023-07-30T04:09:50.104Z,4.00
2023-07-30T04:12:16.528Z,6.00
2023-07-30T04:14:42.957Z,5.00
2023-07-30T04:17:10.232Z,6.00
2023-07-30T04:19:36.644Z,5.67
2023-07-30T04:22:03.932Z,5.00
2023-07-30T04:24:30.388Z,5.00
2023-07-30T04:26:56.792Z,7.00
2023-07-30T04:29:23.259Z,6.33
2023-07-30T04:31:49.659Z,5.00
2023-07-30T04:34:16.930Z,4.75
2023-07-30T04:36:43.427Z,4.67
2023-07-30T04:39:10.761Z,5.50
2023-07-30T04:41:37.627Z,7.33
2023-07-30T04:44:04.307Z,4.00
2023-07-30T04:46:30.765Z,5.00
2023-07-30T04:48:57.207Z,3.67
2023-07-30T04:51:23.623Z,5.00
2023-07-30T04:53:50.048Z,5.00
2023-07-30T04:56:17.318Z,4.50
2023-07-30T04:58:43.746Z,6.00
2023-07-30T05:01:11.020Z,6.00
2023-07-30T05:03:37.500Z,5.00
2023-07-30T05:06:03.986Z,6.00
2023-07-30T05:08:30.410Z,4.67
2023-07-30T05:10:56.818Z,7.33
2023-07-30T05:13:23.229Z,6.00
2023-07-30T05:15:49.664Z,6.00
2023-07-30T05:18:16.977Z,8.00
2023-07-30T05:20:43.407Z,5.00
2023-07-30T05:23:10.819Z,6.75
2023-07-30T05:25:37.211Z,6.00
2023-07-30T05:30:57.169Z,6.00
2023-07-30T05:33:23.681Z,16.00
2023-07-30T05:35:50.083Z,9.00
2023-07-30T05:38:16.645Z,10.00
2023-07-30T05:40:43.203Z,9.33
2023-07-30T05:45:55.195Z,5.75
2023-07-30T05:48:21.647Z,7.00
2023-07-30T05:50:48.919Z,9.00
2023-07-30T05:53:16.205Z,7.00
2023-07-30T05:55:42.679Z,13.00
2023-07-30T06:00:53.899Z,10.50
2023-07-30T06:03:21.663Z,8.00
2023-07-30T06:05:49.350Z,7.50
2023-07-30T06:08:16.912Z,8.00
2023-07-30T06:10:44.282Z,8.25
2023-07-30T06:15:55.012Z,12.00
2023-07-30T06:18:22.401Z,10.25
2023-07-30T06:20:49.775Z,7.00
2023-07-30T06:23:16.383Z,8.00
2023-07-30T06:25:42.796Z,7.00
2023-07-30T06:30:53.930Z,18.67
2023-07-30T06:33:20.400Z,9.00
2023-07-30T06:35:46.806Z,8.00
2023-07-30T06:38:13.234Z,7.00
2023-07-30T06:40:39.651Z,6.67
2023-07-30T06:45:51.066Z,6.25
2023-07-30T06:48:18.338Z,8.50
2023-07-30T06:50:44.782Z,8.00
2023-07-30T06:53:11.253Z,10.50
2023-07-30T06:55:37.665Z,8.00
2023-07-30T07:00:48.470Z,7.00
2023-07-30T07:03:15.000Z,6.00
2023-07-30T07:05:43.633Z,9.00
2023-07-30T07:08:12.588Z,14.00
2023-07-30T07:10:39.962Z,13.00
2023-07-30T07:15:51.363Z,12.00
2023-07-30T07:18:19.717Z,12.60
2023-07-30T07:20:46.200Z,11.00
2023-07-30T07:23:14.561Z,10.40
2023-07-30T07:25:41.047Z,12.00
2023-07-30T07:30:52.903Z,27.00
2023-07-30T07:33:19.466Z,20.00
2023-07-30T07:35:46.002Z,22.50
2023-07-30T07:38:13.482Z,52.00
2023-07-30T07:40:40.963Z,16.67
2023-07-30T07:45:53.264Z,13.33
2023-07-30T07:48:20.818Z,23.00
2023-07-30T07:50:47.344Z,16.50
2023-07-30T07:53:14.675Z,13.67
2023-07-30T07:55:43.919Z,11.33
2023-07-30T08:00:57.937Z,8.50
2023-07-30T08:03:24.381Z,8.00
2023-07-30T08:05:53.643Z,9.00
2023-07-30T08:08:20.104Z,6.50
2023-07-30T08:10:47.402Z,8.00
2023-07-30T08:15:58.212Z,8.50
2023-07-30T08:18:25.616Z,20.00
2023-07-30T08:20:52.930Z,13.00
2023-07-30T08:23:19.443Z,9.50
2023-07-30T08:25:45.929Z,10.00
2023-07-30T08:30:57.809Z,9.75
2023-07-30T08:33:24.228Z,6.33
2023-07-30T08:35:50.642Z,7.00
2023-07-30T08:38:19.992Z,8.00
2023-07-30T08:40:46.426Z,9.00
2023-07-30T08:45:57.847Z,8.25
2023-07-30T08:48:24.259Z,7.67
2023-07-30T08:50:51.596Z,7.00
2023-07-30T08:53:18.916Z,8.00
2023-07-30T08:55:45.330Z,7.00
2023-07-30T09:00:57.501Z,7.25
2023-07-30T09:03:23.924Z,7.00
2023-07-30T09:05:51.248Z,6.75
2023-07-30T09:08:18.594Z,8.00
2023-07-30T09:10:45.070Z,6.00
2023-07-30T09:15:56.166Z,8.00
2023-07-30T09:18:22.605Z,7.00
2023-07-30T09:20:49.110Z,9.67
2023-07-30T09:23:15.562Z,8.00
2023-07-30T09:25:42.101Z,7.33
2023-07-30T09:28:08.606Z,6.33
2023-07-30T09:30:35.134Z,9.00
2023-07-30T09:33:01.873Z,10.00
2023-07-30T09:35:28.416Z,8.67
2023-07-30T09:37:54.887Z,12.50
2023-07-30T09:40:21.371Z,14.00
2023-07-30T09:42:49.854Z,11.00
2023-07-30T09:45:17.615Z,9.00
2023-07-30T09:47:44.075Z,7.33
2023-07-30T09:50:10.572Z,9.00
2023-07-30T09:52:37.841Z,8.00
2023-07-30T09:55:04.314Z,6.67
2023-07-30T09:57:30.734Z,6.00
2023-07-30T09:59:57.206Z,5.67
2023-07-30T10:02:24.656Z,8.75
2023-07-30T10:04:51.207Z,7.33
2023-07-30T10:07:18.579Z,7.00
2023-07-30T10:09:45.037Z,7.00
2023-07-30T10:12:12.326Z,7.25
2023-07-30T10:14:38.736Z,6.00
2023-07-30T10:17:05.213Z,7.00
2023-07-30T10:19:31.660Z,8.00
2023-07-30T10:21:58.048Z,7.67
2023-07-30T10:24:24.508Z,7.00
2023-07-30T10:26:50.933Z,7.00
2023-07-30T10:29:18.257Z,7.00
2023-07-30T10:31:45.587Z,8.00
2023-07-30T10:34:12.872Z,7.50
2023-07-30T10:36:39.294Z,7.00
2023-07-30T10:39:05.722Z,6.00
2023-07-30T10:41:32.147Z,7.33
2023-07-30T10:43:58.594Z,6.67
2023-07-30T10:49:09.692Z,5.50
2023-07-30T10:51:36.128Z,5.33
2023-07-30T10:54:05.407Z,7.67
2023-07-30T10:56:31.824Z,6.00
2023-07-30T10:58:58.264Z,6.67
2023-07-30T11:04:10.403Z,6.50
2023-07-30T11:06:36.946Z,8.00
2023-07-30T11:09:03.387Z,5.00
2023-07-30T11:11:29.828Z,6.67
2023-07-30T11:13:56.237Z,6.67
2023-07-30T11:19:06.613Z,10.00
2023-07-30T11:21:34.997Z,8.60
2023-07-30T11:24:01.475Z,9.00
2023-07-30T11:26:28.018Z,19.50
2023-07-30T11:28:54.502Z,13.00
2023-07-30T11:34:07.822Z,9.00
2023-07-30T11:36:34.208Z,7.00
2023-07-30T11:39:02.567Z,10.80
2023-07-30T11:41:29.113Z,12.00
2023-07-30T11:43:57.432Z,10.00
2023-07-30T11:49:08.460Z,9.00
2023-07-30T11:51:35.740Z,8.75
2023-07-30T11:54:02.192Z,7.50
2023-07-30T11:56:29.535Z,10.00
2023-07-30T11:58:55.981Z,8.33
2023-07-30T12:04:06.547Z,9.50
2023-07-30T12:06:35.846Z,7.83
2023-07-30T12:09:04.231Z,10.00
2023-07-30T12:11:30.707Z,10.00
2023-07-30T12:13:59.901Z,7.83
2023-07-30T12:19:11.348Z,7.50
2023-07-30T12:21:39.804Z,9.00
2023-07-30T12:24:07.256Z,9.25
2023-07-30T12:26:33.696Z,9.00
2023-07-30T12:29:01.002Z,9.25
2023-07-30T12:34:11.293Z,10.00
2023-07-30T12:36:38.587Z,9.00
2023-07-30T12:39:05.056Z,8.50
2023-07-30T12:41:31.512Z,9.00
2023-07-30T12:43:58.800Z,9.25
2023-07-30T12:49:09.961Z,9.25
2023-07-30T12:51:37.660Z,9.00
2023-07-30T12:54:07.142Z,9.17
2023-07-30T12:56:35.108Z,9.00
2023-07-30T12:59:03.661Z,9.00
2023-07-30T13:04:15.021Z,9.00
2023-07-30T13:06:41.491Z,9.00
2023-07-30T13:09:07.978Z,11.00
2023-07-30T13:11:34.418Z,7.00
2023-07-30T13:14:02.864Z,7.00
2023-07-30T13:19:16.788Z,8.00
2023-07-30T13:21:43.228Z,5.67
2023-07-30T13:24:10.537Z,7.75
2023-07-30T13:26:36.980Z,6.00
2023-07-30T13:29:03.394Z,7.00
2023-07-30T13:34:13.873Z,8.33
2023-07-30T13:36:41.155Z,9.00
2023-07-30T13:39:07.576Z,8.00
2023-07-30T13:41:34.140Z,9.33
2023-07-30T13:44:01.464Z,9.00
2023-07-30T13:49:13.682Z,9.00
2023-07-30T13:51:40.461Z,8.00
2023-07-30T13:54:09.162Z,10.80
2023-07-30T13:56:35.673Z,10.00
2023-07-30T13:59:02.125Z,8.33
2023-07-30T14:04:13.486Z,5.00
2023-07-30T14:06:40.885Z,9.50
2023-07-30T14:09:07.384Z,10.00
2023-07-30T14:11:36.865Z,8.00
2023-07-30T14:14:03.454Z,7.33
2023-07-30T14:19:18.977Z,10.00
2023-07-30T14:21:46.281Z,9.50
2023-07-30T14:24:12.741Z,8.50
2023-07-30T14:26:41.933Z,8.00
2023-07-30T14:29:08.398Z,10.00
2023-07-30T14:34:19.574Z,10.00
2023-07-30T14:36:45.997Z,9.00
2023-07-30T14:39:14.490Z,10.00
2023-07-30T14:41:41.231Z,8.50
2023-07-30T14:44:07.866Z,11.00
2023-07-30T14:49:18.356Z,10.00
2023-07-30T14:51:44.849Z,12.00
2023-07-30T14:54:11.400Z,10.00
2023-07-30T14:56:39.067Z,8.00
2023-07-30T14:59:05.646Z,8.50
2023-07-30T15:01:32.138Z,8.33
2023-07-30T15:03:58.684Z,11.00
2023-07-30T15:06:25.177Z,14.00
2023-07-30T15:08:55.172Z,12.71
2023-07-30T15:11:21.710Z,10.00
2023-07-30T15:13:50.068Z,10.60
2023-07-30T15:16:17.370Z,9.00
2023-07-30T15:18:43.828Z,8.00
2023-07-30T15:21:13.828Z,12.57
2023-07-30T15:23:41.068Z,19.00
2023-07-30T15:26:08.469Z,14.00
2023-07-30T15:28:35.046Z,13.00
2023-07-30T15:31:03.467Z,11.00
2023-07-30T15:33:36.124Z,12.29
2023-07-30T15:36:04.038Z,9.50
2023-07-30T15:38:30.621Z,10.00
2023-07-30T15:40:57.069Z,9.00
2023-07-30T15:43:23.595Z,10.00
2023-07-30T15:45:50.064Z,8.00
2023-07-30T15:48:16.614Z,5.00
2023-07-30T15:50:43.099Z,7.67
2023-07-30T15:53:10.395Z,7.00
2023-07-30T15:55:37.705Z,9.00
2023-07-30T15:58:04.421Z,7.00
2023-07-30T16:00:30.839Z,8.00
2023-07-30T16:02:57.381Z,6.33
2023-07-30T16:05:24.705Z,8.75
2023-07-30T16:07:52.044Z,6.00
2023-07-30T16:10:19.603Z,6.00
2023-07-30T16:12:46.935Z,6.00
2023-07-30T16:15:13.375Z,6.67
2023-07-30T16:17:39.908Z,8.00
2023-07-30T16:20:06.604Z,6.33
2023-07-30T16:22:33.036Z,5.33
2023-07-30T16:25:00.346Z,7.00
2023-07-30T16:27:26.814Z,6.00
2023-07-30T16:29:53.271Z,7.33
2023-07-30T16:32:19.732Z,7.00
2023-07-30T16:37:30.011Z,6.00
2023-07-30T16:39:56.474Z,6.33
2023-07-30T16:42:22.967Z,9.00
2023-07-30T16:44:49.545Z,57.00
2023-07-30T16:47:17.115Z,48.00
2023-07-30T16:52:27.765Z,45.50
2023-07-30T16:54:54.322Z,41.50
2023-07-30T16:57:21.856Z,29.00
2023-07-30T16:59:49.370Z,21.00
2023-07-30T17:02:16.792Z,14.00
2023-07-30T17:07:27.234Z,14.50
2023-07-30T17:09:55.598Z,11.00
2023-07-30T17:12:22.920Z,11.33
2023-07-30T17:14:50.266Z,12.67
2023-07-30T17:17:16.984Z,11.00
2023-07-30T17:22:28.885Z,8.00
2023-07-30T17:24:55.314Z,7.00
2023-07-30T17:27:21.745Z,7.00
2023-07-30T17:29:48.165Z,7.00
2023-07-30T17:32:14.691Z,7.00
2023-07-30T17:37:25.191Z,7.33
2023-07-30T17:39:51.601Z,7.67
2023-07-30T17:42:18.915Z,6.00
2023-07-30T17:44:46.213Z,7.50
2023-07-30T17:47:13.494Z,6.00
2023-07-30T17:52:24.607Z,7.00
2023-07-30T17:54:51.083Z,13.00
2023-07-30T17:57:18.495Z,16.67
2023-07-30T17:59:46.847Z,11.20
2023-07-30T18:02:13.601Z,10.00
2023-07-30T18:07:24.038Z,8.00
2023-07-30T18:09:50.485Z,7.33
2023-07-30T18:12:17.754Z,6.25
2023-07-30T18:14:45.065Z,8.00
2023-07-30T18:17:11.578Z,17.00
2023-07-30T18:22:23.034Z,10.50
2023-07-30T18:24:50.397Z,25.33
2023-07-30T18:27:17.901Z,24.50
2023-07-30T18:29:45.344Z,17.67
2023-07-30T18:32:11.820Z,12.50
2023-07-30T18:37:22.174Z,10.00
2023-07-30T18:39:48.664Z,9.50
2023-07-30T18:42:15.217Z,10.00
2023-07-30T18:44:41.663Z,8.00
2023-07-30T18:47:08.089Z,8.67
2023-07-30T18:52:22.221Z,9.75
2023-07-30T18:54:48.631Z,8.50
2023-07-30T18:57:15.932Z,8.50
2023-07-30T18:59:42.453Z,10.00
2023-07-30T19:02:09.850Z,9.50
2023-07-30T19:07:21.646Z,7.00
2023-07-30T19:09:48.920Z,8.50
2023-07-30T19:12:17.472Z,8.75
2023-07-30T19:14:43.877Z,8.33
2023-07-30T19:17:10.380Z,7.50
2023-07-30T19:22:21.895Z,10.00
2023-07-30T19:24:48.464Z,7.00
2023-07-30T19:27:14.921Z,10.00
2023-07-30T19:29:41.421Z,10.00
2023-07-30T19:32:07.986Z,9.00
2023-07-30T19:34:34.529Z,10.00
2023-07-30T19:37:01.070Z,11.00
2023-07-30T19:39:31.146Z,10.86
2023-07-30T19:41:57.709Z,10.50
2023-07-30T19:44:24.200Z,9.00
2023-07-30T19:46:50.787Z,10.00
2023-07-30T19:49:17.707Z,10.00
2023-07-30T19:51:44.200Z,11.00
2023-07-30T19:54:10.738Z,36.50
2023-07-30T19:56:38.530Z,20.33
2023-07-30T19:59:05.221Z,13.50
2023-07-30T20:01:31.775Z,13.00
2023-07-30T20:03:58.269Z,12.50
2023-07-30T20:06:25.623Z,12.00
2023-07-30T20:08:52.156Z,11.00
2023-07-30T20:11:18.711Z,11.00
2023-07-30T20:13:45.194Z,10.50
2023-07-30T20:16:11.814Z,12.00
2023-07-30T20:18:39.196Z,15.00
2023-07-30T20:21:05.683Z,16.00
2023-07-30T20:23:32.207Z,11.50
2023-07-30T20:25:58.809Z,12.00
2023-07-30T20:28:25.412Z,11.00
2023-07-30T20:30:52.755Z,10.00
2023-07-30T20:33:20.057Z,11.67
2023-07-30T20:35:46.612Z,11.00
2023-07-30T20:38:13.103Z,11.00
2023-07-30T20:40:39.668Z,14.00
2023-07-30T20:43:08.073Z,14.00
2023-07-30T20:45:35.383Z,15.67
2023-07-30T20:48:02.811Z,10.33
2023-07-30T20:50:29.489Z,13.00
2023-07-30T20:52:56.091Z,11.50
2023-07-30T20:55:22.561Z,12.00
2023-07-30T20:57:50.919Z,14.00
2023-07-30T21:00:17.379Z,12.00
2023-07-30T21:02:44.832Z,12.33
2023-07-30T21:05:13.244Z,12.80
2023-07-30T21:07:40.517Z,13.00
2023-07-30T21:10:07.052Z,12.50
2023-07-30T21:12:33.606Z,11.00
2023-07-30T21:15:00.980Z,9.00
2023-07-30T21:17:29.028Z,10.25
2023-07-30T21:19:57.377Z,10.80
2023-07-30T21:22:25.759Z,10.80
2023-07-30T21:24:52.193Z,9.00
2023-07-30T21:27:18.760Z,9.50
2023-07-30T21:29:46.047Z,9.00
2023-07-30T21:32:12.710Z,11.00
2023-07-30T21:34:39.367Z,12.50
2023-07-30T21:37:08.641Z,9.00
2023-07-30T21:39:35.162Z,11.00
2023-07-30T21:42:01.571Z,8.00
2023-07-30T21:44:28.033Z,9.00
2023-07-30T21:46:54.581Z,10.00
2023-07-30T21:49:22.954Z,9.40
2023-07-30T21:51:49.356Z,8.00
2023-07-30T21:54:15.793Z,8.00
2023-07-30T21:56:42.274Z,10.00
2023-07-30T21:59:09.534Z,8.00
2023-07-30T22:01:36.177Z,8.00
2023-07-30T22:04:02.670Z,8.00
2023-07-30T22:06:29.982Z,8.00
2023-07-30T22:08:56.410Z,8.33
2023-07-30T22:11:25.611Z,10.00
2023-07-30T22:13:54.024Z,9.00
2023-07-30T22:16:21.366Z,7.00
2023-07-30T22:18:47.838Z,8.67
2023-07-30T22:21:15.109Z,7.75
2023-07-30T22:23:41.529Z,7.67
2023-07-30T22:26:07.950Z,7.00
2023-07-30T22:28:34.387Z,8.00
2023-07-30T22:31:00.919Z,4.00
2023-07-30T22:33:27.382Z,9.00
2023-07-30T22:35:53.804Z,7.67
2023-07-30T22:38:21.067Z,7.00
2023-07-30T22:40:48.339Z,5.50
2023-07-30T22:43:15.617Z,8.00
2023-07-30T22:45:42.025Z,7.33
2023-07-30T22:48:08.402Z,6.00
2023-07-30T22:50:34.828Z,7.00
2023-07-30T22:53:04.021Z,7.83
2023-07-30T22:55:30.423Z,7.00
2023-07-30T22:57:56.844Z,7.00
2023-07-30T23:00:23.270Z,5.00
2023-07-30T23:02:49.767Z,7.00
2023-07-30T23:05:16.234Z,6.00
2023-07-30T23:07:42.644Z,6.67
2023-07-30T23:10:09.061Z,4.67
2023-07-30T23:12:35.508Z,5.00
2023-07-30T23:15:01.910Z,6.00
2023-07-30T23:17:28.434Z,5.00
2023-07-30T23:19:54.912Z,5.67
2023-07-30T23:22:21.364Z,6.00
2023-07-30T23:24:47.777Z,5.67
2023-07-30T23:27:14.208Z,5.00
2023-07-30T23:29:40.621Z,5.33
2023-07-30T23:32:07.038Z,5.00
2023-07-30T23:34:33.458Z,6.00
2023-07-30T23:36:59.870Z,4.67
2023-07-30T23:39:26.292Z,5.00
2023-07-30T23:41:52.717Z,5.00
2023-07-30T23:44:19.127Z,3.00
2023-07-30T23:46:46.382Z,3.75
2023-07-30T23:49:12.793Z,4.67
2023-07-30T23:51:41.919Z,0.00
2023-07-30T23:54:08.315Z,3.00
2023-07-30T23:56:34.783Z,5.00
2023-07-30T23:59:01.240Z,4.00
